Weather observations for the past three days for
Kennett - Kennett Memorial Airport
Imperial (Metric)
Date Time (cdt) Wind (mph) Vis. (mi.) Weather Sky Cond. Temperature (ºF) Relative Humidity Wind Chill (°F) Heat Index (°F) Pressure Precipitation (in)
Air Dwpt 6 hour altimeter (in) sea level (mb) 1 hr 3 hr 6 hr
Max. Min.
05 05:35 Calm 10.00 Fair CLR 75.2 75.2 100% 73 29.91 0.0
05 05:15 E 3 10.00 Fair CLR 75.2 75.2 100% 73 29.91 0.0
05 04:55 Calm 10.00 Fair CLR 75.2 75.2 100% 73 29.91 0.0
05 04:35 Calm 10.00 Fair CLR 75.2 75.2 100% 73 29.91 0.0
05 04:15 Calm 10.00 Fair CLR 77 77 100% 78 29.91 0.0
05 03:55 Calm 10.00 Fair CLR 77 77 100% 78 29.91 0.0
05 03:35 Calm 10.00 Fair CLR 77 77 100% 78 29.91 0.0
05 03:15 Calm 10.00 Fair CLR 77 77 100% 78 29.91 0.0
05 02:55 Calm 10.00 Fair CLR 78.8 78.8 100% 83 29.91 0.0
05 02:35 Calm 10.00 Fair CLR 78.8 78.8 100% 83 29.91 0.0
05 02:15 Calm 10.00 Fair CLR 78.8 78.8 100% 83 29.91 0.0
05 01:55 E 3 10.00 Fair CLR 78.8 78.8 100% 83 29.91 0.0
05 01:35 E 3 10.00 Fair CLR 78.8 78.8 100% 83 29.91 0.0
05 01:15 NE 3 10.00 Fair CLR 78.8 78.8 100% 83 29.91 0.0
05 00:55 Calm 10.00 Fair CLR 80.6 80.6 100% 89 29.91 0.0
05 00:35 NE 5 10.00 Fair CLR 78.8 78.8 100% 83 29.92 0.0
05 00:15 Calm 10.00 Fair CLR 78.8 78.8 100% 83 29.91 0.0
04 23:55 Calm 10.00 Fair CLR 80.6 80.6 100% 89 29.92 0.0
04 23:35 Calm 10.00 Fair CLR 80.6 80.6 100% 89 29.92 0.0
04 23:15 Calm 10.00 Fair CLR 82.4 80.6 94% 94 29.92 0.0
04 22:55 Calm 10.00 Fair CLR 80.6 80.6 100% 89 29.92 0.0
04 22:35 Calm 10.00 Fair CLR 82.4 82.4 100% 96 29.92 0.0
04 22:15 Calm 10.00 Fair CLR 82.4 80.6 94% 94 29.92 0.0
04 21:55 Calm 10.00 Fair CLR 84.2 82.4 94% 101 29.92 0.0
04 21:35 Calm 10.00 Fair CLR 82.4 80.6 94% 94 29.92 0.0
04 21:15 Calm 10.00 Fair CLR 82.4 82.4 100% 96 29.92 0.0
04 20:55 Calm 10.00 Fair CLR 84.2 82.4 94% 101 29.91 0.0
04 20:35 Calm 7.00 Fair CLR 84.2 82.4 94% 101 29.91 0.0
04 20:15 Calm 10.00 Fair CLR 86 80.6 84% 102 29.91 0.0
04 19:55 Calm 10.00 Fair CLR 89.6 75.2 63% 100 29.9 0.0
04 19:35 Calm 10.00 Fair CLR 91.4 73.4 56% 100 29.9 0.0
04 19:15 NW 3 10.00 Fair CLR 93.2 73.4 53% 103 29.9 0.0
04 18:55 NW 5 10.00 Fair CLR 95 73.4 50% 105 29.89 0.0
04 18:35 N 5 10.00 Fair CLR 96.8 73.4 47% 107 29.89 0.0
04 18:15 NE 5 10.00 Fair CLR 96.8 73.4 47% 107 29.89 0.0
04 17:55 Calm 10.00 Fair CLR 98.6 71.6 42% 108 29.89 0.0
04 17:35 Calm 10.00 Fair CLR 98.6 69.8 39% 106 29.89 0.0
04 17:15 NW 5 10.00 Fair CLR 100.4 71.6 40% 110 29.89 0.0
04 16:55 NW 5 10.00 Fair CLR 96.8 73.4 47% 107 29.89 0.0
04 16:35 Calm 10.00 Fair CLR 98.6 69.8 39% 106 29.89 0.0
04 16:15 Calm 10.00 Fair CLR 98.6 69.8 39% 106 29.9 0.0
04 15:55 Vrbl 3 10.00 Fair CLR 100.4 68 35% 106 29.91 0.0
04 15:35 SE 8 10.00 Fair CLR 102.2 69.8 35% 110 29.92 0.0
04 15:15 Calm 10.00 Fair CLR 100.4 69.8 37% 108 29.93 0.0
04 14:55 Vrbl 5 G 12 10.00 Fair CLR 100.4 71.6 40% 110 29.94 0.0
04 14:35 Calm 10.00 Fair CLR 100.4 69.8 37% 108 29.94 0.0
04 14:15 SE 8 10.00 Fair CLR 102.2 68 33% 108 29.95 0.0
04 13:55 SE 7 10.00 Fair CLR 100.4 69.8 37% 108 29.96 0.0
04 13:35 Vrbl 6 10.00 Fair CLR 100.4 71.6 40% 110 29.96 0.0
04 13:15 Vrbl 7 10.00 A Few Clouds FEW060 98.6 71.6 42% 108 29.97 0.0
04 12:55 S 5 10.00 Partly Cloudy SCT060 96.8 71.6 44% 105 29.97 0.0
04 12:35 SW 5 10.00 A Few Clouds FEW060 100.4 71.6 40% 110 29.98 0.0
04 12:15 Calm 10.00 Fair CLR 98.6 71.6 42% 108 29.99 0.0
04 11:55 Vrbl 5 10.00 Fair CLR 98.6 71.6 42% 108 29.99 0.0
04 11:35 SW 3 10.00 Fair CLR 96.8 71.6 44% 105 30 0.0
04 11:15 Calm 10.00 Fair CLR 96.8 73.4 47% 107 30 0.0
04 10:35 Calm 10.00 Fair CLR 95 75.2 53% 107 30 0.0
04 10:15 Calm 10.00 Fair CLR 93.2 78.8 63% 110 30 0.0
04 09:55 Calm 10.00 Fair CLR 91.4 80.6 71% 111 30 0.0
04 09:35 Calm 10.00 Fair CLR 89.6 80.6 75% 108 29.99 0.0
04 09:15 Calm 10.00 Fair CLR 87.8 80.6 79% 105 29.99 0.0
04 08:55 W 5 10.00 Fair CLR 87.8 82.4 84% 108 29.99 0.0
04 08:35 S 3 10.00 Fair CLR 84.2 82.4 94% 101 29.99 0.0
04 08:15 Calm 10.00 Fair CLR 84.2 82.4 94% 101 29.99 0.0
04 07:55 Calm 10.00 Fair CLR 82.4 82.4 100% 96 29.99 0.0
04 07:35 Calm 10.00 Fair CLR 80.6 80.6 100% 89 29.98 0.0
04 07:15 N 5 10.00 Fair CLR 77 77 100% 78 29.98 0.0
04 06:55 Calm 10.00 Fair CLR 75.2 75.2 100% 73 29.97 0.0
04 06:35 Calm 10.00 Fair CLR 75.2 75.2 100% 73 29.97 0.0
04 06:15 Calm 10.00 Fair CLR 75.2 75.2 100% 73 29.96 0.0
04 05:55 Calm 10.00 Fair CLR 75.2 75.2 100% 73 29.95 0.0
04 05:35 Calm 10.00 Fair CLR 75.2 75.2 100% 73 29.95 0.0
04 05:15 Calm 10.00 Fair CLR 77 77 100% 78 29.95 0.0
04 04:55 Calm 10.00 Fair CLR 77 77 100% 78 29.94 0.0
04 04:35 Calm 10.00 Fair CLR 77 77 100% 78 29.94 0.0
04 04:15 Calm 10.00 Fair CLR 77 77 100% 78 29.94 0.0
04 03:55 Calm 10.00 Fair CLR 77 77 100% 78 29.93 0.0
04 03:35 Calm 10.00 Fair CLR 78.8 78.8 100% 83 29.93 0.0
04 03:15 Calm 10.00 Fair CLR 77 77 100% 78 29.92 0.0
04 02:55 Calm 10.00 Fair CLR 78.8 78.8 100% 83 29.93 0.0
04 02:35 Calm 10.00 Fair CLR 78.8 78.8 100% 83 29.93 0.0
04 02:15 Calm 10.00 Fair CLR 78.8 78.8 100% 83 29.93 0.0
04 01:55 Calm 10.00 Fair CLR 78.8 78.8 100% 83 29.93 0.0
04 01:35 Calm 10.00 Fair CLR 78.8 78.8 100% 83 29.94 0.0
04 01:15 Calm 10.00 Fair CLR 78.8 78.8 100% 83 29.94 0.0
04 00:55 Calm 10.00 Fair CLR 78.8 78.8 100% 83 29.94 0.0
04 00:35 Calm 10.00 Fair CLR 80.6 80.6 100% 89 29.94 0.0
04 00:15 E 3 10.00 Fair CLR 80.6 80.6 100% 89 29.94 0.0
03 23:55 Calm 10.00 Fair CLR 80.6 80.6 100% 89 29.94 0.0
03 23:35 Calm 10.00 Fair CLR 80.6 80.6 100% 89 29.94 0.0
03 23:15 Calm 10.00 Fair CLR 80.6 80.6 100% 89 29.94 0.0
03 22:55 E 5 10.00 Fair CLR 82.4 82.4 100% 96 29.94 0.0
03 22:35 E 5 10.00 Fair CLR 82.4 82.4 100% 96 29.94 0.0
03 22:15 E 3 10.00 Fair CLR 82.4 82.4 100% 96 29.94 0.0
03 21:55 E 5 10.00 Fair CLR 82.4 82.4 100% 96 29.95 0.0
03 21:35 Calm 10.00 Fair CLR 84.2 78.8 84% 96 29.94 0.0
03 21:15 Calm 10.00 Fair CLR 84.2 80.6 89% 98 29.94 0.0
03 20:55 Calm 10.00 Fair CLR 84.2 82.4 94% 101 29.93 0.0
03 20:35 Calm 10.00 Fair CLR 84.2 80.6 89% 98 29.93 0.0
03 20:15 E 5 10.00 Fair CLR 86 78.8 79% 99 29.92 0.0
03 19:55 E 3 10.00 Fair CLR 86 80.6 84% 102 29.92 0.0
03 19:35 Calm 10.00 Fair CLR 89.6 80.6 75% 108 29.91 0.0
03 19:15 Calm 10.00 Fair CLR 91.4 77 63% 105 29.92 0.0
03 18:55 W 3 10.00 Fair CLR 95 75.2 53% 107 29.91 0.0
03 18:35 SW 3 10.00 Fair CLR 96.8 71.6 44% 105 29.91 0.0
03 18:15 SW 6 10.00 Fair CLR 98.6 71.6 42% 108 29.9 0.0
03 17:55 SW 5 10.00 Fair CLR 98.6 71.6 42% 108 29.9 0.0
03 17:35 SW 6 10.00 Fair CLR 100.4 69.8 37% 108 29.9 0.0
03 17:15 SW 6 10.00 Fair CLR 100.4 69.8 37% 108 29.9 0.0
03 16:55 SW 7 G 14 10.00 Fair CLR 100.4 69.8 37% 108 29.9 0.0
03 16:35 SW 8 10.00 Fair CLR 100.4 69.8 37% 108 29.9 0.0
03 16:15 S 8 10.00 Fair CLR 100.4 69.8 37% 108 29.91 0.0
03 15:55 SW 8 10.00 Fair CLR 100.4 69.8 37% 108 29.92 0.0
03 15:35 Vrbl 7 10.00 Fair CLR 100.4 69.8 37% 108 29.92 0.0
03 15:15 SW 7 G 13 10.00 Fair CLR 100.4 71.6 40% 110 29.93 0.0
03 14:55 SW 10 10.00 Fair CLR 100.4 71.6 40% 110 29.93 0.0
03 14:35 S 10 10.00 Fair CLR 100.4 71.6 40% 110 29.94 0.0
03 14:15 S 10 10.00 Fair CLR 100.4 69.8 37% 108 29.95 0.0
03 13:55 SW 8 G 15 10.00 Fair CLR 100.4 71.6 40% 110 29.96 0.0
03 13:35 S 7 G 15 10.00 Fair CLR 98.6 71.6 42% 108 29.96 0.0
03 13:15 S 8 G 14 10.00 Fair CLR 98.6 71.6 42% 108 29.97 0.0
03 12:55 S 10 10.00 Fair CLR 100.4 71.6 40% 110 29.98 0.0
03 12:35 Vrbl 6 G 14 10.00 Fair CLR 98.6 71.6 42% 108 29.98 0.0
03 12:15 Vrbl 7 G 15 10.00 Fair CLR 96.8 73.4 47% 107 29.99 0.0
03 11:55 Vrbl 7 10.00 Fair CLR 96.8 75.2 50% 110 30 0.0
03 11:35 Vrbl 5 10.00 Fair CLR 96.8 75.2 50% 110 30 0.0
03 11:15 Vrbl 5 10.00 Fair CLR 96.8 77 53% 112 30 0.0
03 10:55 SW 5 10.00 Fair CLR 95 77 56% 110 30.01 0.0
03 10:35 SW 6 10.00 Fair CLR 93.2 77 59% 107 30.01 0.0
03 10:15 Calm 10.00 Fair CLR 93.2 78.8 63% 110 30.01 0.0
03 09:55 Calm 10.00 Fair CLR 91.4 80.6 71% 111 30 0.0
03 09:35 Calm 10.00 Fair CLR 89.6 80.6 75% 108 30 0.0
03 09:15 Calm 10.00 Fair CLR 86 82.4 89% 105 30.01 0.0
03 08:55 SW 5 10.00 Fair CLR 86 80.6 84% 102 30.01 0.0
03 08:35 SW 5 10.00 Fair CLR 84.2 80.6 89% 98 30.01 0.0
03 08:15 SW 5 10.00 Fair CLR 82.4 78.8 89% 92 30.01 0.0
03 07:35 Calm 10.00 Fair CLR 77 77 100% 78 30.01 0.0
03 07:15 Calm 10.00 Fair CLR 75.2 75.2 100% 73 30.01 0.0
03 06:55 Calm 10.00 Fair CLR 75.2 75.2 100% 73 30 0.0
03 06:35 Calm 10.00 A Few Clouds FEW120 73.4 73.4 100% 29.99 0.0
03 06:15 Calm 10.00 Partly Cloudy SCT120 75.2 75.2 100% 73 29.99 0.0
03 05:55 Calm 10.00 Fair CLR 75.2 75.2 100% 73 29.99 0.0
03 05:35 Calm 10.00 Fair CLR 75.2 75.2 100% 73 29.98 0.0
03 05:15 Calm 10.00 Fair CLR 75.2 75.2 100% 73 29.98 0.0
03 04:55 Calm 10.00 Fair CLR 75.2 75.2 100% 73 29.98 0.0
03 04:35 S 3 10.00 Fair CLR 75.2 75.2 100% 73 29.98 0.0
03 04:15 Calm 10.00 Fair CLR 75.2 75.2 100% 73 29.98 0.0
03 03:55 Calm 10.00 Fair CLR 77 77 100% 78 29.98 0.0
03 03:35 Calm 10.00 Fair CLR 77 77 100% 78 29.97 0.0
03 03:15 Calm 10.00 Fair CLR 77 77 100% 78 29.97 0.0
03 02:55 Calm 10.00 Fair CLR 77 77 100% 78 29.96 0.0
03 02:35 Calm 10.00 Fair CLR 77 77 100% 78 29.97 0.0
03 02:15 SE 3 10.00 Fair CLR 77 77 100% 78 29.97 0.0
03 01:55 SE 6 10.00 Fair CLR 77 77 100% 78 29.97 0.0
03 01:35 SE 3 10.00 Fair CLR 77 77 100% 78 29.97 0.0
03 01:15 Calm 10.00 Fair CLR 77 77 100% 78 29.97 0.0
03 00:55 Calm 10.00 Fair CLR 78.8 78.8 100% 83 29.97 0.0
03 00:35 Calm 10.00 Fair CLR 80.6 78.8 94% 88 29.97 0.0
03 00:15 Calm 10.00 Fair CLR 78.8 78.8 100% 83 29.97 0.0
02 23:55 E 6 10.00 Fair CLR 78.8 78.8 100% 83 29.97 0.0
02 23:35 Calm 10.00 Fair CLR 78.8 78.8 100% 83 29.97 0.0
02 23:15 Calm 10.00 Fair CLR 78.8 78.8 100% 83 29.97 0.0
02 22:55 Calm 10.00 Fair CLR 78.8 78.8 100% 83 29.97 0.0
02 22:35 Calm 10.00 Fair CLR 80.6 80.6 100% 89 29.97 0.0
02 22:15 Calm 10.00 Fair CLR 80.6 78.8 94% 88 29.97 0.0
02 21:55 Calm 10.00 Fair CLR 80.6 78.8 94% 88 29.98 0.0
02 21:35 Calm 10.00 Fair CLR 82.4 80.6 94% 94 29.97 0.0
02 20:55 Calm 10.00 Fair CLR 82.4 80.6 94% 94 29.96 0.0
02 20:35 E 3 10.00 Fair CLR 82.4 82.4 100% 96 29.95 0.0
02 20:15 SE 3 10.00 Fair CLR 84.2 80.6 89% 98 29.95 0.0
02 19:55 Calm 10.00 Fair CLR 86 78.8 79% 99 29.94 0.0
02 19:35 S 3 10.00 Fair CLR 87.8 75.2 66% 98 29.94 0.0
02 19:15 Calm 10.00 Fair CLR 91.4 73.4 56% 100 29.94 0.0
02 18:55 S 3 10.00 Fair CLR 93.2 73.4 53% 103 29.95 0.0
02 18:35 SW 5 10.00 Fair CLR 95 71.6 47% 103 29.95 0.0
02 18:15 SW 6 10.00 Fair CLR 96.8 69.8 42% 103 29.95 0.0
02 17:55 S 6 10.00 Fair CLR 98.6 69.8 39% 106 29.95 0.0
02 17:35 S 8 10.00 Fair CLR 98.6 69.8 39% 106 29.95 0.0
02 16:55 S 8 G 15 10.00 Fair CLR 100.4 69.8 37% 108 29.95 0.0
02 16:35 Vrbl 7 G 14 10.00 Fair CLR 100.4 68 35% 106 29.96 0.0
02 16:15 S 9 G 15 10.00 Fair CLR 100.4 69.8 37% 108 29.96 0.0
02 15:55 Vrbl 7 G 17 10.00 Fair CLR 100.4 69.8 37% 108 29.97 0.0
02 15:35 S 8 G 16 10.00 Fair CLR 100.4 69.8 37% 108 29.97 0.0
02 15:15 SW 9 G 16 10.00 Fair CLR 100.4 69.8 37% 108 29.98 0.0
02 14:55 Vrbl 7 10.00 Fair CLR 100.4 69.8 37% 108 29.99 0.0
02 14:35 S 10 G 16 10.00 Fair CLR 100.4 68 35% 106 29.99 0.0
02 14:15 SW 12 10.00 Fair CLR 100.4 69.8 37% 108 30 0.0
02 13:55 SW 9 10.00 Fair CLR 100.4 69.8 37% 108 30.01 0.0
02 13:35 S 8 10.00 Fair CLR 98.6 69.8 39% 106 30.01 0.0
02 13:15 Vrbl 8 G 14 10.00 Fair CLR 98.6 69.8 39% 106 30.02 0.0
02 12:55 Vrbl 7 G 13 10.00 Fair CLR 98.6 68 37% 104 30.02 0.0
02 12:35 Vrbl 5 G 14 10.00 Fair CLR 98.6 69.8 39% 106 30.03 0.0
02 12:15 Vrbl 6 10.00 Fair CLR 98.6 71.6 42% 108 30.04 0.0
02 11:55 S 8 10.00 Fair CLR 96.8 73.4 47% 107 30.05 0.0
02 11:35 S 7 10.00 Fair CLR 96.8 73.4 47% 107 30.05 0.0
02 11:15 Vrbl 6 10.00 Fair CLR 95 75.2 53% 107 30.05 0.0
02 10:55 Vrbl 6 10.00 Fair CLR 95 78.8 60% 113 30.06 0.0
02 10:35 Calm 10.00 Fair CLR 93.2 80.6 67% 113 30.06 0.0
02 10:15 Vrbl 5 10.00 Fair CLR 91.4 80.6 71% 111 30.06 0.0
02 09:55 SW 7 10.00 Fair CLR 89.6 80.6 75% 108 30.06 0.0
02 09:35 SW 8 10.00 Fair CLR 89.6 80.6 75% 108 30.06 0.0
02 09:15 SW 7 10.00 Fair CLR 87.8 80.6 79% 105 30.06 0.0
02 08:55 SW 6 10.00 Fair CLR 86 80.6 84% 102 30.06 0.0
02 08:35 SW 3 10.00 Fair CLR 84.2 80.6 89% 98 30.06 0.0
02 08:15 SW 5 10.00 Fair CLR 82.4 80.6 94% 94 30.06 0.0
02 07:55 Calm 10.00 Fair CLR 80.6 80.6 100% 89 30.06 0.0
02 07:35 Calm 10.00 Fair CLR 77 77 100% 78 30.05 0.0
02 07:15 Calm 10.00 Fair CLR 73.4 73.4 100% 30.05 0.0
02 06:35 Calm 10.00 Fair CLR 73.4 73.4 100% 30.04 0.0
02 06:15 Calm 10.00 Fair CLR 73.4 73.4 100% 30.03 0.0
02 05:55 Calm 9.00 Fair CLR 73.4 73.4 100% 30.03 0.0
Date Time (cdt) Wind (mph) Vis. (mi.) Weather Sky Cond. Air Dwpt Max. Min. Relative Humidity Wind Chill (°F) Heat Index (°F) altimeter (in) sea level (mb) 1 hr 3 hr 6 hr
6 hour
Temperature (ºF) Pressure Precipitation (in)